sensor_id;sensor_type;location;lat;lon;timestamp;P1;durP1;ratioP1;P2;durP2;ratioP2
81936;SDS011;71432;56.558;9.036;2023-08-06T00:01:42;1.73;;;0.60;;
81936;SDS011;71432;56.558;9.036;2023-08-06T00:04:07;1.38;;;0.57;;
81936;SDS011;71432;56.558;9.036;2023-08-06T00:06:32;1.80;;;0.50;;
81936;SDS011;71432;56.558;9.036;2023-08-06T00:08:57;1.27;;;0.60;;
81936;SDS011;71432;56.558;9.036;2023-08-06T00:11:23;1.47;;;0.90;;
81936;SDS011;71432;56.558;9.036;2023-08-06T00:13:48;1.00;;;0.60;;
81936;SDS011;71432;56.558;9.036;2023-08-06T00:16:13;2.15;;;0.70;;
81936;SDS011;71432;56.558;9.036;2023-08-06T00:18:39;1.17;;;0.50;;
81936;SDS011;71432;56.558;9.036;2023-08-06T00:21:05;4.00;;;0.65;;
81936;SDS011;71432;56.558;9.036;2023-08-06T00:23:30;1.60;;;0.60;;
81936;SDS011;71432;56.558;9.036;2023-08-06T00:25:55;1.00;;;0.50;;
81936;SDS011;71432;56.558;9.036;2023-08-06T00:28:21;1.60;;;0.70;;
81936;SDS011;71432;56.558;9.036;2023-08-06T00:30:46;1.13;;;0.43;;
81936;SDS011;71432;56.558;9.036;2023-08-06T00:33:17;0.98;;;0.50;;
81936;SDS011;71432;56.558;9.036;2023-08-06T00:35:42;1.40;;;0.40;;
81936;SDS011;71432;56.558;9.036;2023-08-06T00:38:07;0.50;;;0.30;;
81936;SDS011;71432;56.558;9.036;2023-08-06T00:40:32;1.50;;;0.60;;
81936;SDS011;71432;56.558;9.036;2023-08-06T00:42:58;2.22;;;0.50;;
81936;SDS011;71432;56.558;9.036;2023-08-06T00:45:24;0.90;;;0.40;;
81936;SDS011;71432;56.558;9.036;2023-08-06T00:47:50;0.82;;;0.30;;
81936;SDS011;71432;56.558;9.036;2023-08-06T00:50:15;1.25;;;0.40;;
81936;SDS011;71432;56.558;9.036;2023-08-06T00:52:41;1.33;;;0.30;;
81936;SDS011;71432;56.558;9.036;2023-08-06T00:55:07;1.23;;;0.63;;
81936;SDS011;71432;56.558;9.036;2023-08-06T00:57:33;0.75;;;0.50;;
81936;SDS011;71432;56.558;9.036;2023-08-06T00:59:58;0.75;;;0.45;;
81936;SDS011;71432;56.558;9.036;2023-08-06T01:02:23;1.30;;;0.52;;
81936;SDS011;71432;56.558;9.036;2023-08-06T01:04:49;1.13;;;0.55;;
81936;SDS011;71432;56.558;9.036;2023-08-06T01:12:48;0.90;;;0.30;;
81936;SDS011;71432;56.558;9.036;2023-08-06T01:15:20;1.90;;;0.60;;
81936;SDS011;71432;56.558;9.036;2023-08-06T01:17:48;0.90;;;0.60;;
81936;SDS011;71432;56.558;9.036;2023-08-06T01:20:15;1.00;;;0.47;;
81936;SDS011;71432;56.558;9.036;2023-08-06T01:22:40;1.42;;;0.50;;
81936;SDS011;71432;56.558;9.036;2023-08-06T01:25:05;1.75;;;0.45;;
81936;SDS011;71432;56.558;9.036;2023-08-06T01:30:13;0.95;;;0.30;;
81936;SDS011;71432;56.558;9.036;2023-08-06T01:32:43;1.55;;;0.63;;
81936;SDS011;71432;56.558;9.036;2023-08-06T01:35:12;1.38;;;0.50;;
81936;SDS011;71432;56.558;9.036;2023-08-06T01:37:40;0.60;;;0.47;;
81936;SDS011;71432;56.558;9.036;2023-08-06T01:40:12;1.17;;;0.60;;
81936;SDS011;71432;56.558;9.036;2023-08-06T01:42:38;1.35;;;0.55;;
81936;SDS011;71432;56.558;9.036;2023-08-06T01:45:05;1.35;;;0.55;;
81936;SDS011;71432;56.558;9.036;2023-08-06T01:47:34;2.20;;;0.73;;
81936;SDS011;71432;56.558;9.036;2023-08-06T01:49:59;1.88;;;1.00;;
81936;SDS011;71432;56.558;9.036;2023-08-06T01:52:25;2.50;;;0.70;;
81936;SDS011;71432;56.558;9.036;2023-08-06T01:54:51;1.23;;;0.40;;
81936;SDS011;71432;56.558;9.036;2023-08-06T01:57:16;1.88;;;0.70;;
81936;SDS011;71432;56.558;9.036;2023-08-06T01:59:41;0.93;;;0.50;;
81936;SDS011;71432;56.558;9.036;2023-08-06T02:02:07;3.78;;;0.70;;
81936;SDS011;71432;56.558;9.036;2023-08-06T02:04:32;0.70;;;0.40;;
81936;SDS011;71432;56.558;9.036;2023-08-06T02:06:57;0.60;;;0.30;;
81936;SDS011;71432;56.558;9.036;2023-08-06T02:09:23;1.13;;;0.40;;
81936;SDS011;71432;56.558;9.036;2023-08-06T02:11:48;1.35;;;0.50;;
81936;SDS011;71432;56.558;9.036;2023-08-06T02:14:13;1.23;;;0.40;;
81936;SDS011;71432;56.558;9.036;2023-08-06T02:16:39;1.20;;;0.50;;
81936;SDS011;71432;56.558;9.036;2023-08-06T02:19:04;1.63;;;0.55;;
81936;SDS011;71432;56.558;9.036;2023-08-06T02:21:29;2.33;;;0.70;;
81936;SDS011;71432;56.558;9.036;2023-08-06T02:23:55;1.17;;;0.63;;
81936;SDS011;71432;56.558;9.036;2023-08-06T02:26:20;1.00;;;0.60;;
81936;SDS011;71432;56.558;9.036;2023-08-06T02:28:46;2.03;;;0.73;;
81936;SDS011;71432;56.558;9.036;2023-08-06T02:31:11;1.67;;;0.67;;
81936;SDS011;71432;56.558;9.036;2023-08-06T02:33:36;0.90;;;0.60;;
81936;SDS011;71432;56.558;9.036;2023-08-06T02:36:02;1.65;;;0.80;;
81936;SDS011;71432;56.558;9.036;2023-08-06T02:38:29;2.15;;;0.55;;
81936;SDS011;71432;56.558;9.036;2023-08-06T02:40:54;0.90;;;0.60;;
81936;SDS011;71432;56.558;9.036;2023-08-06T02:43:20;2.08;;;0.55;;
81936;SDS011;71432;56.558;9.036;2023-08-06T02:45:45;5.07;;;0.80;;
81936;SDS011;71432;56.558;9.036;2023-08-06T02:48:11;2.28;;;0.63;;
81936;SDS011;71432;56.558;9.036;2023-08-06T02:50:39;1.40;;;0.60;;
81936;SDS011;71432;56.558;9.036;2023-08-06T02:53:06;1.02;;;0.50;;
81936;SDS011;71432;56.558;9.036;2023-08-06T02:55:32;0.93;;;0.50;;
81936;SDS011;71432;56.558;9.036;2023-08-06T02:57:59;1.73;;;0.55;;
81936;SDS011;71432;56.558;9.036;2023-08-06T03:00:24;0.75;;;0.22;;
81936;SDS011;71432;56.558;9.036;2023-08-06T03:02:49;1.27;;;0.50;;
81936;SDS011;71432;56.558;9.036;2023-08-06T03:05:15;2.88;;;0.60;;
81936;SDS011;71432;56.558;9.036;2023-08-06T03:07:40;2.50;;;0.57;;
81936;SDS011;71432;56.558;9.036;2023-08-06T03:10:06;1.48;;;0.60;;
81936;SDS011;71432;56.558;9.036;2023-08-06T03:12:31;2.20;;;0.60;;
81936;SDS011;71432;56.558;9.036;2023-08-06T03:14:57;2.65;;;0.60;;
81936;SDS011;71432;56.558;9.036;2023-08-06T03:17:22;0.87;;;0.40;;
81936;SDS011;71432;56.558;9.036;2023-08-06T03:19:47;1.13;;;0.43;;
81936;SDS011;71432;56.558;9.036;2023-08-06T03:22:13;1.30;;;0.40;;
81936;SDS011;71432;56.558;9.036;2023-08-06T03:24:38;0.80;;;0.53;;
81936;SDS011;71432;56.558;9.036;2023-08-06T03:27:03;0.95;;;0.45;;
81936;SDS011;71432;56.558;9.036;2023-08-06T03:29:29;1.02;;;0.52;;
81936;SDS011;71432;56.558;9.036;2023-08-06T03:31:54;0.98;;;0.40;;
81936;SDS011;71432;56.558;9.036;2023-08-06T03:34:19;0.90;;;0.30;;
81936;SDS011;71432;56.558;9.036;2023-08-06T03:36:45;1.77;;;0.63;;
81936;SDS011;71432;56.558;9.036;2023-08-06T03:39:10;1.60;;;0.60;;
81936;SDS011;71432;56.558;9.036;2023-08-06T03:41:35;1.83;;;0.40;;
81936;SDS011;71432;56.558;9.036;2023-08-06T03:44:01;1.55;;;0.50;;
81936;SDS011;71432;56.558;9.036;2023-08-06T03:46:28;1.70;;;0.52;;
81936;SDS011;71432;56.558;9.036;2023-08-06T03:48:54;0.98;;;0.63;;
81936;SDS011;71432;56.558;9.036;2023-08-06T03:51:19;1.27;;;0.50;;
81936;SDS011;71432;56.558;9.036;2023-08-06T03:53:45;0.98;;;0.40;;
81936;SDS011;71432;56.558;9.036;2023-08-06T03:56:10;1.02;;;0.47;;
81936;SDS011;71432;56.558;9.036;2023-08-06T03:58:35;1.10;;;0.40;;
81936;SDS011;71432;56.558;9.036;2023-08-06T04:01:01;1.23;;;0.47;;
81936;SDS011;71432;56.558;9.036;2023-08-06T04:03:28;1.10;;;0.57;;
81936;SDS011;71432;56.558;9.036;2023-08-06T04:05:53;0.95;;;0.40;;
81936;SDS011;71432;56.558;9.036;2023-08-06T04:08:19;2.25;;;0.70;;
81936;SDS011;71432;56.558;9.036;2023-08-06T04:10:45;2.22;;;0.63;;
81936;SDS011;71432;56.558;9.036;2023-08-06T04:13:10;2.25;;;0.60;;
81936;SDS011;71432;56.558;9.036;2023-08-06T04:15:35;1.93;;;0.70;;
81936;SDS011;71432;56.558;9.036;2023-08-06T04:18:01;2.13;;;0.80;;
81936;SDS011;71432;56.558;9.036;2023-08-06T04:20:26;1.97;;;0.57;;
81936;SDS011;71432;56.558;9.036;2023-08-06T04:22:54;0.93;;;0.50;;
81936;SDS011;71432;56.558;9.036;2023-08-06T04:25:20;0.98;;;0.43;;
81936;SDS011;71432;56.558;9.036;2023-08-06T04:27:49;1.13;;;0.50;;
81936;SDS011;71432;56.558;9.036;2023-08-06T04:30:14;0.52;;;0.38;;
81936;SDS011;71432;56.558;9.036;2023-08-06T04:32:40;2.80;;;0.80;;
81936;SDS011;71432;56.558;9.036;2023-08-06T04:35:06;0.82;;;0.70;;
81936;SDS011;71432;56.558;9.036;2023-08-06T04:37:31;2.67;;;0.57;;
81936;SDS011;71432;56.558;9.036;2023-08-06T04:39:56;1.92;;;0.68;;
81936;SDS011;71432;56.558;9.036;2023-08-06T04:42:22;9.18;;;0.55;;
81936;SDS011;71432;56.558;9.036;2023-08-06T04:44:47;1.60;;;0.70;;
81936;SDS011;71432;56.558;9.036;2023-08-06T04:47:12;6.83;;;0.87;;
81936;SDS011;71432;56.558;9.036;2023-08-06T04:49:38;2.97;;;0.80;;
81936;SDS011;71432;56.558;9.036;2023-08-06T04:52:03;3.13;;;0.80;;
81936;SDS011;71432;56.558;9.036;2023-08-06T04:54:29;0.82;;;0.30;;
81936;SDS011;71432;56.558;9.036;2023-08-06T04:56:54;1.02;;;0.60;;
81936;SDS011;71432;56.558;9.036;2023-08-06T04:59:19;0.80;;;0.50;;
81936;SDS011;71432;56.558;9.036;2023-08-06T05:01:45;0.98;;;0.45;;
81936;SDS011;71432;56.558;9.036;2023-08-06T05:04:10;1.43;;;0.67;;
81936;SDS011;71432;56.558;9.036;2023-08-06T05:06:35;1.50;;;0.60;;
81936;SDS011;71432;56.558;9.036;2023-08-06T05:09:03;1.50;;;0.70;;
81936;SDS011;71432;56.558;9.036;2023-08-06T05:13:54;0.83;;;0.50;;
81936;SDS011;71432;56.558;9.036;2023-08-06T05:16:20;3.25;;;0.70;;
81936;SDS011;71432;56.558;9.036;2023-08-06T05:18:45;2.03;;;0.53;;
81936;SDS011;71432;56.558;9.036;2023-08-06T05:21:10;2.58;;;0.52;;
81936;SDS011;71432;56.558;9.036;2023-08-06T05:23:36;2.53;;;0.60;;
81936;SDS011;71432;56.558;9.036;2023-08-06T05:26:01;1.53;;;0.60;;
81936;SDS011;71432;56.558;9.036;2023-08-06T05:28:26;1.10;;;0.50;;
81936;SDS011;71432;56.558;9.036;2023-08-06T05:30:52;0.97;;;0.80;;
81936;SDS011;71432;56.558;9.036;2023-08-06T05:33:17;1.33;;;0.70;;
81936;SDS011;71432;56.558;9.036;2023-08-06T05:35:42;1.63;;;0.80;;
81936;SDS011;71432;56.558;9.036;2023-08-06T05:38:08;1.20;;;0.70;;
81936;SDS011;71432;56.558;9.036;2023-08-06T05:40:34;0.73;;;0.47;;
81936;SDS011;71432;56.558;9.036;2023-08-06T05:42:59;1.70;;;0.70;;
81936;SDS011;71432;56.558;9.036;2023-08-06T05:45:25;1.35;;;0.88;;
81936;SDS011;71432;56.558;9.036;2023-08-06T05:47:50;0.97;;;0.57;;
81936;SDS011;71432;56.558;9.036;2023-08-06T05:50:16;0.98;;;0.60;;
81936;SDS011;71432;56.558;9.036;2023-08-06T05:52:41;1.23;;;0.60;;
81936;SDS011;71432;56.558;9.036;2023-08-06T05:55:07;1.42;;;0.80;;
81936;SDS011;71432;56.558;9.036;2023-08-06T05:57:32;1.27;;;0.63;;
81936;SDS011;71432;56.558;9.036;2023-08-06T05:59:58;2.37;;;0.70;;
81936;SDS011;71432;56.558;9.036;2023-08-06T06:02:23;1.70;;;0.80;;
81936;SDS011;71432;56.558;9.036;2023-08-06T06:04:48;0.80;;;0.50;;
81936;SDS011;71432;56.558;9.036;2023-08-06T06:07:14;1.30;;;0.45;;
81936;SDS011;71432;56.558;9.036;2023-08-06T06:09:39;2.85;;;0.68;;
81936;SDS011;71432;56.558;9.036;2023-08-06T06:12:05;1.38;;;0.60;;
81936;SDS011;71432;56.558;9.036;2023-08-06T06:16:56;1.20;;;0.60;;
81936;SDS011;71432;56.558;9.036;2023-08-06T06:19:22;1.00;;;0.52;;
81936;SDS011;71432;56.558;9.036;2023-08-06T06:21:47;1.27;;;0.63;;
81936;SDS011;71432;56.558;9.036;2023-08-06T06:24:12;2.42;;;0.60;;
81936;SDS011;71432;56.558;9.036;2023-08-06T06:26:38;2.25;;;1.35;;
81936;SDS011;71432;56.558;9.036;2023-08-06T06:29:04;1.20;;;0.70;;
81936;SDS011;71432;56.558;9.036;2023-08-06T06:31:29;1.30;;;0.70;;
81936;SDS011;71432;56.558;9.036;2023-08-06T06:33:54;0.82;;;0.43;;
81936;SDS011;71432;56.558;9.036;2023-08-06T06:36:20;1.40;;;0.65;;
81936;SDS011;71432;56.558;9.036;2023-08-06T06:38:45;1.25;;;0.60;;
81936;SDS011;71432;56.558;9.036;2023-08-06T06:41:11;0.82;;;0.57;;
81936;SDS011;71432;56.558;9.036;2023-08-06T06:43:37;3.83;;;0.90;;
81936;SDS011;71432;56.558;9.036;2023-08-06T06:46:04;0.82;;;0.45;;
81936;SDS011;71432;56.558;9.036;2023-08-06T06:48:31;2.28;;;0.70;;
81936;SDS011;71432;56.558;9.036;2023-08-06T06:50:57;2.92;;;1.20;;
81936;SDS011;71432;56.558;9.036;2023-08-06T06:53:23;1.20;;;0.50;;
81936;SDS011;71432;56.558;9.036;2023-08-06T06:55:53;2.10;;;0.50;;
81936;SDS011;71432;56.558;9.036;2023-08-06T06:58:36;1.08;;;0.45;;
81936;SDS011;71432;56.558;9.036;2023-08-06T07:01:03;2.55;;;0.88;;
81936;SDS011;71432;56.558;9.036;2023-08-06T07:03:29;1.23;;;0.50;;
81936;SDS011;71432;56.558;9.036;2023-08-06T07:05:57;1.05;;;0.52;;
81936;SDS011;71432;56.558;9.036;2023-08-06T07:08:23;3.80;;;1.67;;
81936;SDS011;71432;56.558;9.036;2023-08-06T07:10:49;2.03;;;0.82;;
81936;SDS011;71432;56.558;9.036;2023-08-06T07:13:14;0.90;;;0.40;;
81936;SDS011;71432;56.558;9.036;2023-08-06T07:15:41;3.00;;;0.65;;
81936;SDS011;71432;56.558;9.036;2023-08-06T07:18:06;1.73;;;0.70;;
81936;SDS011;71432;56.558;9.036;2023-08-06T07:20:32;0.85;;;0.50;;
81936;SDS011;71432;56.558;9.036;2023-08-06T07:22:59;3.20;;;0.50;;
81936;SDS011;71432;56.558;9.036;2023-08-06T07:25:25;1.48;;;0.80;;
81936;SDS011;71432;56.558;9.036;2023-08-06T07:27:51;1.08;;;0.60;;
81936;SDS011;71432;56.558;9.036;2023-08-06T07:30:16;1.58;;;0.60;;
81936;SDS011;71432;56.558;9.036;2023-08-06T07:32:42;1.80;;;0.68;;
81936;SDS011;71432;56.558;9.036;2023-08-06T07:35:07;2.13;;;0.60;;
81936;SDS011;71432;56.558;9.036;2023-08-06T07:37:37;1.20;;;0.73;;
81936;SDS011;71432;56.558;9.036;2023-08-06T07:40:03;1.75;;;0.60;;
81936;SDS011;71432;56.558;9.036;2023-08-06T07:42:29;1.80;;;0.88;;
81936;SDS011;71432;56.558;9.036;2023-08-06T07:44:55;3.72;;;0.85;;
81936;SDS011;71432;56.558;9.036;2023-08-06T07:47:22;2.42;;;0.77;;
81936;SDS011;71432;56.558;9.036;2023-08-06T07:49:47;0.90;;;0.50;;
81936;SDS011;71432;56.558;9.036;2023-08-06T07:52:13;1.05;;;0.70;;
81936;SDS011;71432;56.558;9.036;2023-08-06T07:54:38;3.58;;;0.88;;
81936;SDS011;71432;56.558;9.036;2023-08-06T07:57:03;0.90;;;0.50;;
81936;SDS011;71432;56.558;9.036;2023-08-06T07:59:29;2.47;;;0.60;;
81936;SDS011;71432;56.558;9.036;2023-08-06T08:01:54;2.43;;;0.67;;
81936;SDS011;71432;56.558;9.036;2023-08-06T08:04:20;1.13;;;0.80;;
81936;SDS011;71432;56.558;9.036;2023-08-06T08:06:47;2.45;;;1.15;;
81936;SDS011;71432;56.558;9.036;2023-08-06T08:09:12;1.15;;;0.85;;
81936;SDS011;71432;56.558;9.036;2023-08-06T08:11:39;0.90;;;0.60;;
81936;SDS011;71432;56.558;9.036;2023-08-06T08:14:04;1.23;;;0.70;;
81936;SDS011;71432;56.558;9.036;2023-08-06T08:16:30;2.35;;;0.70;;
81936;SDS011;71432;56.558;9.036;2023-08-06T08:18:55;1.45;;;0.98;;
81936;SDS011;71432;56.558;9.036;2023-08-06T08:21:20;1.80;;;0.80;;
81936;SDS011;71432;56.558;9.036;2023-08-06T08:23:46;3.05;;;0.82;;
81936;SDS011;71432;56.558;9.036;2023-08-06T08:26:11;8.10;;;1.10;;
81936;SDS011;71432;56.558;9.036;2023-08-06T08:28:36;2.10;;;1.20;;
81936;SDS011;71432;56.558;9.036;2023-08-06T08:31:02;2.70;;;1.10;;
81936;SDS011;71432;56.558;9.036;2023-08-06T08:33:27;1.75;;;0.90;;
81936;SDS011;71432;56.558;9.036;2023-08-06T08:35:52;3.05;;;1.10;;
81936;SDS011;71432;56.558;9.036;2023-08-06T08:38:18;2.70;;;1.50;;
81936;SDS011;71432;56.558;9.036;2023-08-06T08:40:46;1.50;;;0.97;;
81936;SDS011;71432;56.558;9.036;2023-08-06T08:43:16;2.45;;;1.00;;
81936;SDS011;71432;56.558;9.036;2023-08-06T08:45:45;3.95;;;1.00;;
81936;SDS011;71432;56.558;9.036;2023-08-06T08:48:17;1.48;;;0.90;;
81936;SDS011;71432;56.558;9.036;2023-08-06T08:50:44;3.78;;;1.35;;
81936;SDS011;71432;56.558;9.036;2023-08-06T08:53:11;5.00;;;1.02;;
81936;SDS011;71432;56.558;9.036;2023-08-06T08:55:39;2.90;;;1.33;;
81936;SDS011;71432;56.558;9.036;2023-08-06T08:58:05;2.72;;;1.25;;
81936;SDS011;71432;56.558;9.036;2023-08-06T09:00:30;7.10;;;1.25;;
81936;SDS011;71432;56.558;9.036;2023-08-06T09:02:56;3.97;;;1.90;;
81936;SDS011;71432;56.558;9.036;2023-08-06T09:05:24;3.67;;;1.30;;
81936;SDS011;71432;56.558;9.036;2023-08-06T09:07:53;1.90;;;1.20;;
81936;SDS011;71432;56.558;9.036;2023-08-06T09:10:20;4.32;;;1.15;;
81936;SDS011;71432;56.558;9.036;2023-08-06T09:12:48;1.75;;;1.10;;
81936;SDS011;71432;56.558;9.036;2023-08-06T09:15:16;2.15;;;1.02;;
81936;SDS011;71432;56.558;9.036;2023-08-06T09:17:41;2.03;;;1.23;;
81936;SDS011;71432;56.558;9.036;2023-08-06T09:20:10;2.78;;;1.20;;
81936;SDS011;71432;56.558;9.036;2023-08-06T09:22:37;4.80;;;1.10;;
81936;SDS011;71432;56.558;9.036;2023-08-06T09:25:02;3.25;;;1.15;;
81936;SDS011;71432;56.558;9.036;2023-08-06T09:27:29;5.80;;;1.23;;
81936;SDS011;71432;56.558;9.036;2023-08-06T09:29:54;2.58;;;1.00;;
81936;SDS011;71432;56.558;9.036;2023-08-06T09:32:20;3.00;;;1.10;;
81936;SDS011;71432;56.558;9.036;2023-08-06T09:34:45;5.35;;;1.30;;
81936;SDS011;71432;56.558;9.036;2023-08-06T09:37:11;2.22;;;1.55;;
81936;SDS011;71432;56.558;9.036;2023-08-06T09:39:38;1.98;;;1.33;;
81936;SDS011;71432;56.558;9.036;2023-08-06T09:42:05;2.38;;;0.90;;
81936;SDS011;71432;56.558;9.036;2023-08-06T09:44:31;1.60;;;1.00;;
81936;SDS011;71432;56.558;9.036;2023-08-06T09:46:58;2.78;;;1.25;;
81936;SDS011;71432;56.558;9.036;2023-08-06T09:49:28;1.83;;;1.25;;
81936;SDS011;71432;56.558;9.036;2023-08-06T09:52:06;1.65;;;1.08;;
81936;SDS011;71432;56.558;9.036;2023-08-06T09:54:35;3.90;;;1.20;;
81936;SDS011;71432;56.558;9.036;2023-08-06T09:57:02;4.65;;;1.10;;
81936;SDS011;71432;56.558;9.036;2023-08-06T09:59:28;3.90;;;1.20;;
81936;SDS011;71432;56.558;9.036;2023-08-06T10:01:53;2.33;;;1.00;;
81936;SDS011;71432;56.558;9.036;2023-08-06T10:04:22;3.35;;;1.02;;
81936;SDS011;71432;56.558;9.036;2023-08-06T10:06:49;2.85;;;1.15;;
81936;SDS011;71432;56.558;9.036;2023-08-06T10:09:15;3.20;;;1.17;;
81936;SDS011;71432;56.558;9.036;2023-08-06T10:11:42;3.72;;;1.15;;
81936;SDS011;71432;56.558;9.036;2023-08-06T10:14:09;2.42;;;0.95;;
81936;SDS011;71432;56.558;9.036;2023-08-06T10:16:37;7.35;;;1.15;;
81936;SDS011;71432;56.558;9.036;2023-08-06T10:19:04;1.25;;;0.80;;
81936;SDS011;71432;56.558;9.036;2023-08-06T10:21:31;3.15;;;1.02;;
81936;SDS011;71432;56.558;9.036;2023-08-06T10:23:57;4.40;;;1.42;;
81936;SDS011;71432;56.558;9.036;2023-08-06T10:26:28;8.05;;;1.58;;
81936;SDS011;71432;56.558;9.036;2023-08-06T10:28:54;2.80;;;0.82;;
81936;SDS011;71432;56.558;9.036;2023-08-06T10:31:24;2.88;;;0.80;;
81936;SDS011;71432;56.558;9.036;2023-08-06T10:34:24;2.40;;;0.90;;
81936;SDS011;71432;56.558;9.036;2023-08-06T10:36:49;5.18;;;1.17;;
81936;SDS011;71432;56.558;9.036;2023-08-06T10:39:14;1.88;;;1.30;;
81936;SDS011;71432;56.558;9.036;2023-08-06T10:41:42;1.52;;;1.10;;
81936;SDS011;71432;56.558;9.036;2023-08-06T10:44:09;2.47;;;0.98;;
81936;SDS011;71432;56.558;9.036;2023-08-06T10:46:36;2.53;;;0.90;;
81936;SDS011;71432;56.558;9.036;2023-08-06T10:49:02;2.30;;;0.70;;
81936;SDS011;71432;56.558;9.036;2023-08-06T10:51:29;3.30;;;0.95;;
81936;SDS011;71432;56.558;9.036;2023-08-06T10:53:54;3.55;;;0.90;;
81936;SDS011;71432;56.558;9.036;2023-08-06T10:56:21;2.40;;;1.00;;
81936;SDS011;71432;56.558;9.036;2023-08-06T10:58:48;2.83;;;0.80;;
81936;SDS011;71432;56.558;9.036;2023-08-06T11:01:14;2.03;;;1.42;;
81936;SDS011;71432;56.558;9.036;2023-08-06T11:03:41;3.67;;;1.00;;
81936;SDS011;71432;56.558;9.036;2023-08-06T11:06:07;2.28;;;0.90;;
81936;SDS011;71432;56.558;9.036;2023-08-06T11:08:34;2.40;;;1.13;;
81936;SDS011;71432;56.558;9.036;2023-08-06T11:11:13;2.53;;;0.88;;
81936;SDS011;71432;56.558;9.036;2023-08-06T11:16:09;1.65;;;1.02;;
81936;SDS011;71432;56.558;9.036;2023-08-06T11:18:35;1.65;;;0.85;;
81936;SDS011;71432;56.558;9.036;2023-08-06T11:21:01;1.35;;;0.85;;
81936;SDS011;71432;56.558;9.036;2023-08-06T11:23:27;1.63;;;0.95;;
81936;SDS011;71432;56.558;9.036;2023-08-06T11:25:56;3.97;;;0.73;;
81936;SDS011;71432;56.558;9.036;2023-08-06T11:30:48;3.83;;;0.80;;
81936;SDS011;71432;56.558;9.036;2023-08-06T11:33:20;2.30;;;0.88;;
81936;SDS011;71432;56.558;9.036;2023-08-06T11:35:47;2.80;;;0.98;;
81936;SDS011;71432;56.558;9.036;2023-08-06T11:38:13;2.35;;;1.35;;
81936;SDS011;71432;56.558;9.036;2023-08-06T11:40:39;3.33;;;1.30;;
81936;SDS011;71432;56.558;9.036;2023-08-06T11:43:05;3.10;;;0.95;;
81936;SDS011;71432;56.558;9.036;2023-08-06T11:45:31;3.75;;;1.20;;
81936;SDS011;71432;56.558;9.036;2023-08-06T11:48:00;4.40;;;1.42;;
81936;SDS011;71432;56.558;9.036;2023-08-06T11:50:25;2.58;;;1.30;;
81936;SDS011;71432;56.558;9.036;2023-08-06T11:52:58;6.95;;;1.40;;
81936;SDS011;71432;56.558;9.036;2023-08-06T11:55:25;1.77;;;0.82;;
81936;SDS011;71432;56.558;9.036;2023-08-06T11:57:53;4.63;;;1.73;;
81936;SDS011;71432;56.558;9.036;2023-08-06T12:00:19;5.15;;;1.33;;
81936;SDS011;71432;56.558;9.036;2023-08-06T12:02:47;5.72;;;1.90;;
81936;SDS011;71432;56.558;9.036;2023-08-06T12:05:18;6.13;;;1.42;;
81936;SDS011;71432;56.558;9.036;2023-08-06T12:07:57;4.32;;;1.48;;
81936;SDS011;71432;56.558;9.036;2023-08-06T12:10:24;2.60;;;1.17;;
81936;SDS011;71432;56.558;9.036;2023-08-06T12:12:50;3.97;;;1.10;;
81936;SDS011;71432;56.558;9.036;2023-08-06T12:15:15;3.00;;;1.00;;
81936;SDS011;71432;56.558;9.036;2023-08-06T12:17:41;3.10;;;1.33;;
81936;SDS011;71432;56.558;9.036;2023-08-06T12:20:07;2.50;;;0.90;;
81936;SDS011;71432;56.558;9.036;2023-08-06T12:22:34;2.78;;;1.95;;
81936;SDS011;71432;56.558;9.036;2023-08-06T12:27:33;1.88;;;0.95;;
81936;SDS011;71432;56.558;9.036;2023-08-06T12:29:58;2.03;;;1.00;;
81936;SDS011;71432;56.558;9.036;2023-08-06T12:32:24;3.77;;;0.80;;
81936;SDS011;71432;56.558;9.036;2023-08-06T12:34:49;4.60;;;0.90;;
81936;SDS011;71432;56.558;9.036;2023-08-06T12:37:14;1.63;;;1.03;;
81936;SDS011;71432;56.558;9.036;2023-08-06T12:39:40;4.00;;;0.98;;
81936;SDS011;71432;56.558;9.036;2023-08-06T12:42:05;3.13;;;0.50;;
81936;SDS011;71432;56.558;9.036;2023-08-06T12:44:31;1.85;;;0.85;;
81936;SDS011;71432;56.558;9.036;2023-08-06T12:46:57;2.53;;;0.80;;
81936;SDS011;71432;56.558;9.036;2023-08-06T12:49:25;4.90;;;1.00;;
81936;SDS011;71432;56.558;9.036;2023-08-06T12:51:51;1.92;;;0.85;;
81936;SDS011;71432;56.558;9.036;2023-08-06T12:54:17;1.98;;;0.70;;
81936;SDS011;71432;56.558;9.036;2023-08-06T12:56:43;2.15;;;0.65;;
81936;SDS011;71432;56.558;9.036;2023-08-06T12:59:09;2.67;;;0.98;;
81936;SDS011;71432;56.558;9.036;2023-08-06T13:01:35;5.57;;;1.40;;
81936;SDS011;71432;56.558;9.036;2023-08-06T13:04:00;2.00;;;0.70;;
81936;SDS011;71432;56.558;9.036;2023-08-06T13:06:25;3.55;;;1.00;;
81936;SDS011;71432;56.558;9.036;2023-08-06T13:08:51;3.25;;;0.60;;
81936;SDS011;71432;56.558;9.036;2023-08-06T13:11:16;1.27;;;0.50;;
81936;SDS011;71432;56.558;9.036;2023-08-06T13:13:42;1.45;;;0.80;;
81936;SDS011;71432;56.558;9.036;2023-08-06T13:16:07;2.92;;;0.70;;
81936;SDS011;71432;56.558;9.036;2023-08-06T13:18:33;2.90;;;0.50;;
81936;SDS011;71432;56.558;9.036;2023-08-06T13:20:58;2.22;;;1.35;;
81936;SDS011;71432;56.558;9.036;2023-08-06T13:23:23;2.80;;;0.60;;
81936;SDS011;71432;56.558;9.036;2023-08-06T13:25:49;1.30;;;0.60;;
81936;SDS011;71432;56.558;9.036;2023-08-06T13:28:14;3.43;;;0.80;;
81936;SDS011;71432;56.558;9.036;2023-08-06T13:30:40;2.90;;;0.60;;
81936;SDS011;71432;56.558;9.036;2023-08-06T13:33:10;5.53;;;0.55;;
81936;SDS011;71432;56.558;9.036;2023-08-06T13:35:36;2.55;;;0.98;;
81936;SDS011;71432;56.558;9.036;2023-08-06T13:38:01;5.40;;;0.93;;
81936;SDS011;71432;56.558;9.036;2023-08-06T13:40:32;2.65;;;0.77;;
81936;SDS011;71432;56.558;9.036;2023-08-06T13:42:58;2.00;;;0.88;;
81936;SDS011;71432;56.558;9.036;2023-08-06T13:45:24;2.45;;;0.70;;
81936;SDS011;71432;56.558;9.036;2023-08-06T13:47:49;2.17;;;0.55;;
81936;SDS011;71432;56.558;9.036;2023-08-06T13:50:15;1.45;;;0.52;;
81936;SDS011;71432;56.558;9.036;2023-08-06T13:52:41;3.15;;;0.73;;
81936;SDS011;71432;56.558;9.036;2023-08-06T13:55:06;1.17;;;0.55;;
81936;SDS011;71432;56.558;9.036;2023-08-06T13:57:32;5.20;;;0.60;;
81936;SDS011;71432;56.558;9.036;2023-08-06T13:59:58;2.05;;;0.68;;
81936;SDS011;71432;56.558;9.036;2023-08-06T14:02:24;1.67;;;0.60;;
81936;SDS011;71432;56.558;9.036;2023-08-06T14:04:50;1.85;;;0.73;;
81936;SDS011;71432;56.558;9.036;2023-08-06T14:07:17;1.42;;;0.70;;
81936;SDS011;71432;56.558;9.036;2023-08-06T14:09:42;2.13;;;0.50;;
81936;SDS011;71432;56.558;9.036;2023-08-06T14:12:09;1.20;;;0.70;;
81936;SDS011;71432;56.558;9.036;2023-08-06T14:14:34;0.93;;;0.40;;
81936;SDS011;71432;56.558;9.036;2023-08-06T14:17:00;2.30;;;0.55;;
81936;SDS011;71432;56.558;9.036;2023-08-06T14:21:51;1.93;;;0.50;;
81936;SDS011;71432;56.558;9.036;2023-08-06T14:24:16;5.88;;;0.60;;
81936;SDS011;71432;56.558;9.036;2023-08-06T14:26:42;1.60;;;0.70;;
81936;SDS011;71432;56.558;9.036;2023-08-06T14:29:07;1.65;;;0.50;;
81936;SDS011;71432;56.558;9.036;2023-08-06T14:31:32;1.00;;;0.60;;
81936;SDS011;71432;56.558;9.036;2023-08-06T14:33:58;2.17;;;0.50;;
81936;SDS011;71432;56.558;9.036;2023-08-06T14:36:23;4.22;;;0.70;;
81936;SDS011;71432;56.558;9.036;2023-08-06T14:38:48;1.30;;;0.70;;
81936;SDS011;71432;56.558;9.036;2023-08-06T14:41:14;2.90;;;0.70;;
81936;SDS011;71432;56.558;9.036;2023-08-06T14:43:39;1.05;;;0.60;;
81936;SDS011;71432;56.558;9.036;2023-08-06T14:46:05;1.30;;;0.40;;
81936;SDS011;71432;56.558;9.036;2023-08-06T14:48:30;1.50;;;0.57;;
81936;SDS011;71432;56.558;9.036;2023-08-06T14:50:56;1.13;;;0.50;;
81936;SDS011;71432;56.558;9.036;2023-08-06T14:53:21;2.15;;;0.47;;
81936;SDS011;71432;56.558;9.036;2023-08-06T14:55:46;2.72;;;0.60;;
81936;SDS011;71432;56.558;9.036;2023-08-06T14:58:12;1.05;;;0.60;;
81936;SDS011;71432;56.558;9.036;2023-08-06T15:00:37;1.92;;;0.70;;
81936;SDS011;71432;56.558;9.036;2023-08-06T15:03:02;1.90;;;0.40;;
81936;SDS011;71432;56.558;9.036;2023-08-06T15:05:28;1.83;;;0.60;;